sensor_id;sensor_type;location;lat;lon;timestamp;P1;durP1;ratioP1;P2;durP2;ratioP2
4553;SDS011;2289;48.316;15.174;2024-03-08T00:03:11;47.87;;;27.20;;
4553;SDS011;2289;48.316;15.174;2024-03-08T00:15:00;43.43;;;24.67;;
4553;SDS011;2289;48.316;15.174;2024-03-08T00:17:29;41.43;;;25.03;;
4553;SDS011;2289;48.316;15.174;2024-03-08T00:23:05;46.33;;;24.80;;
4553;SDS011;2289;48.316;15.174;2024-03-08T00:31:47;52.33;;;27.37;;
4553;SDS011;2289;48.316;15.174;2024-03-08T00:34:16;42.40;;;24.60;;
4553;SDS011;2289;48.316;15.174;2024-03-08T00:36:44;38.20;;;25.37;;
4553;SDS011;2289;48.316;15.174;2024-03-08T00:39:14;52.33;;;26.07;;
4553;SDS011;2289;48.316;15.174;2024-03-08T00:44:52;43.50;;;26.50;;
4553;SDS011;2289;48.316;15.174;2024-03-08T00:53:34;39.87;;;23.70;;
4553;SDS011;2289;48.316;15.174;2024-03-08T00:56:05;37.10;;;23.33;;
4553;SDS011;2289;48.316;15.174;2024-03-08T01:01:41;48.83;;;25.63;;
4553;SDS011;2289;48.316;15.174;2024-03-08T01:22:49;38.27;;;22.20;;
4553;SDS011;2289;48.316;15.174;2024-03-08T01:25:18;41.13;;;22.73;;
4553;SDS011;2289;48.316;15.174;2024-03-08T01:27:47;37.97;;;21.80;;
4553;SDS011;2289;48.316;15.174;2024-03-08T01:30:16;41.43;;;25.30;;
4553;SDS011;2289;48.316;15.174;2024-03-08T01:38:36;43.00;;;25.03;;
4553;SDS011;2289;48.316;15.174;2024-03-08T01:41:05;37.53;;;22.30;;
4553;SDS011;2289;48.316;15.174;2024-03-08T01:43:33;36.73;;;20.40;;
4553;SDS011;2289;48.316;15.174;2024-03-08T01:46:03;39.77;;;22.73;;
4553;SDS011;2289;48.316;15.174;2024-03-08T01:48:32;33.70;;;22.53;;
4553;SDS011;2289;48.316;15.174;2024-03-08T01:51:01;43.07;;;23.97;;
4553;SDS011;2289;48.316;15.174;2024-03-08T01:53:30;39.50;;;23.83;;
4553;SDS011;2289;48.316;15.174;2024-03-08T01:56:01;34.87;;;22.00;;
4553;SDS011;2289;48.316;15.174;2024-03-08T01:58:30;37.13;;;22.93;;
4553;SDS011;2289;48.316;15.174;2024-03-08T02:00:59;41.77;;;24.77;;
4553;SDS011;2289;48.316;15.174;2024-03-08T02:03:31;35.83;;;22.50;;
4553;SDS011;2289;48.316;15.174;2024-03-08T02:05:59;37.33;;;22.13;;
4553;SDS011;2289;48.316;15.174;2024-03-08T02:08:28;36.93;;;20.83;;
4553;SDS011;2289;48.316;15.174;2024-03-08T02:10:57;37.47;;;21.03;;
4553;SDS011;2289;48.316;15.174;2024-03-08T02:13:27;42.43;;;21.93;;
4553;SDS011;2289;48.316;15.174;2024-03-08T02:15:56;33.60;;;20.70;;
4553;SDS011;2289;48.316;15.174;2024-03-08T02:18:26;37.73;;;23.20;;
4553;SDS011;2289;48.316;15.174;2024-03-08T02:20:58;29.43;;;20.47;;
4553;SDS011;2289;48.316;15.174;2024-03-08T02:23:27;38.53;;;21.07;;
4553;SDS011;2289;48.316;15.174;2024-03-08T02:25:56;36.23;;;20.90;;
4553;SDS011;2289;48.316;15.174;2024-03-08T02:28:25;30.90;;;18.67;;
4553;SDS011;2289;48.316;15.174;2024-03-08T02:30:57;36.00;;;21.17;;
4553;SDS011;2289;48.316;15.174;2024-03-08T02:33:28;34.23;;;20.43;;
4553;SDS011;2289;48.316;15.174;2024-03-08T02:35:58;42.40;;;22.70;;
4553;SDS011;2289;48.316;15.174;2024-03-08T02:38:27;27.87;;;18.50;;
4553;SDS011;2289;48.316;15.174;2024-03-08T02:40:55;34.87;;;20.40;;
4553;SDS011;2289;48.316;15.174;2024-03-08T02:43:24;32.70;;;21.00;;
4553;SDS011;2289;48.316;15.174;2024-03-08T02:45:52;35.97;;;22.67;;
4553;SDS011;2289;48.316;15.174;2024-03-08T02:48:21;36.70;;;21.00;;
4553;SDS011;2289;48.316;15.174;2024-03-08T02:50:50;37.40;;;20.57;;
4553;SDS011;2289;48.316;15.174;2024-03-08T02:53:20;33.87;;;19.73;;
4553;SDS011;2289;48.316;15.174;2024-03-08T02:55:49;41.23;;;20.50;;
4553;SDS011;2289;48.316;15.174;2024-03-08T02:58:18;42.50;;;22.73;;
4553;SDS011;2289;48.316;15.174;2024-03-08T03:00:46;39.53;;;21.80;;
4553;SDS011;2289;48.316;15.174;2024-03-08T03:03:15;39.50;;;23.60;;
4553;SDS011;2289;48.316;15.174;2024-03-08T03:05:44;37.50;;;23.37;;
4553;SDS011;2289;48.316;15.174;2024-03-08T03:08:15;44.33;;;23.53;;
4553;SDS011;2289;48.316;15.174;2024-03-08T03:10:46;39.00;;;22.57;;
4553;SDS011;2289;48.316;15.174;2024-03-08T03:13:15;36.23;;;22.30;;
4553;SDS011;2289;48.316;15.174;2024-03-08T03:15:43;32.83;;;18.90;;
4553;SDS011;2289;48.316;15.174;2024-03-08T03:18:12;41.53;;;24.23;;
4553;SDS011;2289;48.316;15.174;2024-03-08T03:20:41;45.67;;;23.43;;
4553;SDS011;2289;48.316;15.174;2024-03-08T03:23:10;36.53;;;25.30;;
4553;SDS011;2289;48.316;15.174;2024-03-08T03:25:42;50.30;;;24.50;;
4553;SDS011;2289;48.316;15.174;2024-03-08T03:28:14;40.77;;;24.40;;
4553;SDS011;2289;48.316;15.174;2024-03-08T03:30:46;40.07;;;25.20;;
4553;SDS011;2289;48.316;15.174;2024-03-08T03:33:14;35.50;;;21.70;;
4553;SDS011;2289;48.316;15.174;2024-03-08T03:35:43;31.63;;;20.87;;
4553;SDS011;2289;48.316;15.174;2024-03-08T03:38:13;39.80;;;21.63;;
4553;SDS011;2289;48.316;15.174;2024-03-08T03:40:42;37.43;;;21.60;;
4553;SDS011;2289;48.316;15.174;2024-03-08T03:43:14;31.03;;;18.43;;
4553;SDS011;2289;48.316;15.174;2024-03-08T03:45:43;37.77;;;22.57;;
4553;SDS011;2289;48.316;15.174;2024-03-08T03:48:11;36.60;;;22.27;;
4553;SDS011;2289;48.316;15.174;2024-03-08T03:50:40;35.83;;;21.03;;
4553;SDS011;2289;48.316;15.174;2024-03-08T03:53:09;34.83;;;21.27;;
4553;SDS011;2289;48.316;15.174;2024-03-08T03:55:37;33.00;;;21.10;;
4553;SDS011;2289;48.316;15.174;2024-03-08T03:58:07;36.40;;;22.87;;
4553;SDS011;2289;48.316;15.174;2024-03-08T04:00:39;33.50;;;20.27;;
4553;SDS011;2289;48.316;15.174;2024-03-08T04:03:10;38.40;;;23.13;;
4553;SDS011;2289;48.316;15.174;2024-03-08T04:05:39;34.20;;;19.10;;
4553;SDS011;2289;48.316;15.174;2024-03-08T04:08:08;41.33;;;22.67;;
4553;SDS011;2289;48.316;15.174;2024-03-08T04:10:36;36.00;;;24.23;;
4553;SDS011;2289;48.316;15.174;2024-03-08T04:13:05;38.60;;;23.70;;
4553;SDS011;2289;48.316;15.174;2024-03-08T04:15:33;30.73;;;20.23;;
4553;SDS011;2289;48.316;15.174;2024-03-08T04:18:03;39.80;;;24.00;;
4553;SDS011;2289;48.316;15.174;2024-03-08T04:20:33;37.80;;;23.17;;
4553;SDS011;2289;48.316;15.174;2024-03-08T04:23:02;37.80;;;20.77;;
4553;SDS011;2289;48.316;15.174;2024-03-08T04:25:31;40.63;;;22.27;;
4553;SDS011;2289;48.316;15.174;2024-03-08T04:28:00;38.87;;;22.47;;
4553;SDS011;2289;48.316;15.174;2024-03-08T04:30:28;34.60;;;21.20;;
4553;SDS011;2289;48.316;15.174;2024-03-08T04:32:57;40.57;;;24.83;;
4553;SDS011;2289;48.316;15.174;2024-03-08T04:35:28;33.77;;;19.33;;
4553;SDS011;2289;48.316;15.174;2024-03-08T04:37:57;40.13;;;24.20;;
4553;SDS011;2289;48.316;15.174;2024-03-08T04:40:26;44.80;;;24.10;;
4553;SDS011;2289;48.316;15.174;2024-03-08T04:42:55;32.70;;;19.50;;
4553;SDS011;2289;48.316;15.174;2024-03-08T04:45:23;31.67;;;20.50;;
4553;SDS011;2289;48.316;15.174;2024-03-08T04:47:53;30.10;;;19.07;;
4553;SDS011;2289;48.316;15.174;2024-03-08T04:50:22;36.40;;;22.60;;
4553;SDS011;2289;48.316;15.174;2024-03-08T04:52:52;38.67;;;22.50;;
4553;SDS011;2289;48.316;15.174;2024-03-08T04:55:20;27.93;;;18.77;;
4553;SDS011;2289;48.316;15.174;2024-03-08T04:57:50;39.53;;;21.67;;
4553;SDS011;2289;48.316;15.174;2024-03-08T05:00:19;53.13;;;22.90;;
4553;SDS011;2289;48.316;15.174;2024-03-08T05:02:47;33.23;;;20.63;;
4553;SDS011;2289;48.316;15.174;2024-03-08T05:05:20;41.43;;;22.27;;
4553;SDS011;2289;48.316;15.174;2024-03-08T05:07:49;37.40;;;23.00;;
4553;SDS011;2289;48.316;15.174;2024-03-08T05:10:19;38.30;;;23.43;;
4553;SDS011;2289;48.316;15.174;2024-03-08T05:12:48;40.40;;;23.50;;
4553;SDS011;2289;48.316;15.174;2024-03-08T05:15:21;42.50;;;24.07;;
4553;SDS011;2289;48.316;15.174;2024-03-08T05:17:49;45.87;;;25.00;;
4553;SDS011;2289;48.316;15.174;2024-03-08T05:20:21;57.07;;;26.87;;
4553;SDS011;2289;48.316;15.174;2024-03-08T05:22:49;38.93;;;23.20;;
4553;SDS011;2289;48.316;15.174;2024-03-08T05:25:20;52.90;;;28.53;;
4553;SDS011;2289;48.316;15.174;2024-03-08T05:27:49;47.07;;;27.07;;
4553;SDS011;2289;48.316;15.174;2024-03-08T05:30:18;40.80;;;24.90;;
4553;SDS011;2289;48.316;15.174;2024-03-08T05:32:48;33.43;;;20.53;;
4553;SDS011;2289;48.316;15.174;2024-03-08T05:35:17;29.53;;;20.77;;
4553;SDS011;2289;48.316;15.174;2024-03-08T05:37:47;35.10;;;21.60;;
4553;SDS011;2289;48.316;15.174;2024-03-08T05:40:17;41.40;;;22.17;;
4553;SDS011;2289;48.316;15.174;2024-03-08T05:42:50;35.17;;;21.27;;
4553;SDS011;2289;48.316;15.174;2024-03-08T05:45:19;49.00;;;24.67;;
4553;SDS011;2289;48.316;15.174;2024-03-08T05:47:47;36.03;;;20.90;;
4553;SDS011;2289;48.316;15.174;2024-03-08T05:50:16;30.03;;;22.37;;
4553;SDS011;2289;48.316;15.174;2024-03-08T05:52:46;42.60;;;22.10;;
4553;SDS011;2289;48.316;15.174;2024-03-08T05:55:17;37.87;;;23.70;;
4553;SDS011;2289;48.316;15.174;2024-03-08T05:57:46;29.67;;;20.20;;
4553;SDS011;2289;48.316;15.174;2024-03-08T06:00:17;35.77;;;22.57;;
4553;SDS011;2289;48.316;15.174;2024-03-08T06:02:46;31.93;;;20.20;;
4553;SDS011;2289;48.316;15.174;2024-03-08T06:05:14;33.47;;;21.60;;
4553;SDS011;2289;48.316;15.174;2024-03-08T06:07:43;33.53;;;22.07;;
4553;SDS011;2289;48.316;15.174;2024-03-08T06:10:14;41.40;;;24.13;;
4553;SDS011;2289;48.316;15.174;2024-03-08T06:12:44;39.73;;;23.80;;
4553;SDS011;2289;48.316;15.174;2024-03-08T06:15:13;37.37;;;22.40;;
4553;SDS011;2289;48.316;15.174;2024-03-08T06:17:44;38.80;;;23.23;;
4553;SDS011;2289;48.316;15.174;2024-03-08T06:20:13;38.53;;;23.57;;
4553;SDS011;2289;48.316;15.174;2024-03-08T06:22:42;38.50;;;23.47;;
4553;SDS011;2289;48.316;15.174;2024-03-08T06:25:11;39.60;;;24.00;;
4553;SDS011;2289;48.316;15.174;2024-03-08T06:27:42;38.40;;;24.20;;
4553;SDS011;2289;48.316;15.174;2024-03-08T06:30:11;44.40;;;23.33;;
4553;SDS011;2289;48.316;15.174;2024-03-08T06:32:44;46.87;;;26.07;;
4553;SDS011;2289;48.316;15.174;2024-03-08T06:35:13;45.33;;;25.10;;
4553;SDS011;2289;48.316;15.174;2024-03-08T06:37:43;41.70;;;23.60;;
4553;SDS011;2289;48.316;15.174;2024-03-08T06:40:12;44.33;;;26.37;;
4553;SDS011;2289;48.316;15.174;2024-03-08T06:42:41;40.00;;;24.63;;
4553;SDS011;2289;48.316;15.174;2024-03-08T06:45:10;38.70;;;21.63;;
4553;SDS011;2289;48.316;15.174;2024-03-08T06:47:40;34.80;;;20.90;;
4553;SDS011;2289;48.316;15.174;2024-03-08T06:50:13;29.53;;;19.27;;
4553;SDS011;2289;48.316;15.174;2024-03-08T06:52:43;34.23;;;22.30;;
4553;SDS011;2289;48.316;15.174;2024-03-08T06:55:15;36.40;;;21.93;;
4553;SDS011;2289;48.316;15.174;2024-03-08T06:57:44;44.27;;;22.13;;
4553;SDS011;2289;48.316;15.174;2024-03-08T07:00:13;43.10;;;24.13;;
4553;SDS011;2289;48.316;15.174;2024-03-08T07:02:46;47.23;;;25.63;;
4553;SDS011;2289;48.316;15.174;2024-03-08T07:05:17;42.40;;;24.03;;
4553;SDS011;2289;48.316;15.174;2024-03-08T07:07:46;41.23;;;24.30;;
4553;SDS011;2289;48.316;15.174;2024-03-08T07:10:16;40.50;;;23.97;;
4553;SDS011;2289;48.316;15.174;2024-03-08T07:12:46;38.20;;;23.30;;
4553;SDS011;2289;48.316;15.174;2024-03-08T07:15:15;45.07;;;25.67;;
4553;SDS011;2289;48.316;15.174;2024-03-08T07:17:47;41.40;;;25.50;;
4553;SDS011;2289;48.316;15.174;2024-03-08T07:20:17;35.90;;;23.60;;
4553;SDS011;2289;48.316;15.174;2024-03-08T07:22:46;42.90;;;24.80;;
4553;SDS011;2289;48.316;15.174;2024-03-08T07:25:18;32.17;;;20.87;;
4553;SDS011;2289;48.316;15.174;2024-03-08T07:27:51;32.33;;;19.93;;
4553;SDS011;2289;48.316;15.174;2024-03-08T07:30:21;32.67;;;21.30;;
4553;SDS011;2289;48.316;15.174;2024-03-08T07:33:10;33.37;;;20.63;;
4553;SDS011;2289;48.316;15.174;2024-03-08T07:35:41;39.23;;;24.30;;
4553;SDS011;2289;48.316;15.174;2024-03-08T07:38:14;35.20;;;19.83;;
4553;SDS011;2289;48.316;15.174;2024-03-08T07:40:43;40.80;;;22.33;;
4553;SDS011;2289;48.316;15.174;2024-03-08T07:43:12;38.07;;;22.40;;
4553;SDS011;2289;48.316;15.174;2024-03-08T07:45:42;32.40;;;20.60;;
4553;SDS011;2289;48.316;15.174;2024-03-08T07:48:10;32.73;;;19.33;;
4553;SDS011;2289;48.316;15.174;2024-03-08T07:50:42;35.77;;;19.93;;
4553;SDS011;2289;48.316;15.174;2024-03-08T07:53:11;36.50;;;21.20;;
4553;SDS011;2289;48.316;15.174;2024-03-08T07:55:40;34.10;;;21.00;;
4553;SDS011;2289;48.316;15.174;2024-03-08T07:58:10;30.37;;;19.30;;
4553;SDS011;2289;48.316;15.174;2024-03-08T08:00:40;28.63;;;15.80;;
4553;SDS011;2289;48.316;15.174;2024-03-08T08:03:10;35.60;;;20.07;;
4553;SDS011;2289;48.316;15.174;2024-03-08T08:05:42;32.03;;;21.40;;
4553;SDS011;2289;48.316;15.174;2024-03-08T08:08:13;34.50;;;20.60;;
4553;SDS011;2289;48.316;15.174;2024-03-08T08:10:42;29.23;;;19.53;;
4553;SDS011;2289;48.316;15.174;2024-03-08T08:13:11;32.10;;;19.40;;
4553;SDS011;2289;48.316;15.174;2024-03-08T08:15:40;32.77;;;18.80;;
4553;SDS011;2289;48.316;15.174;2024-03-08T08:18:08;32.07;;;19.27;;
4553;SDS011;2289;48.316;15.174;2024-03-08T08:20:37;38.00;;;22.10;;
4553;SDS011;2289;48.316;15.174;2024-03-08T08:23:07;35.47;;;21.87;;
4553;SDS011;2289;48.316;15.174;2024-03-08T08:25:38;35.97;;;22.20;;
4553;SDS011;2289;48.316;15.174;2024-03-08T08:28:07;33.70;;;20.90;;
4553;SDS011;2289;48.316;15.174;2024-03-08T08:30:36;32.93;;;22.40;;
4553;SDS011;2289;48.316;15.174;2024-03-08T08:33:05;37.10;;;20.80;;
4553;SDS011;2289;48.316;15.174;2024-03-08T08:35:35;31.47;;;19.60;;
4553;SDS011;2289;48.316;15.174;2024-03-08T08:38:04;34.07;;;21.80;;
4553;SDS011;2289;48.316;15.174;2024-03-08T08:40:35;40.57;;;21.50;;
4553;SDS011;2289;48.316;15.174;2024-03-08T08:43:04;43.03;;;26.50;;
4553;SDS011;2289;48.316;15.174;2024-03-08T08:45:35;40.43;;;22.33;;
4553;SDS011;2289;48.316;15.174;2024-03-08T08:48:08;37.83;;;21.70;;
4553;SDS011;2289;48.316;15.174;2024-03-08T08:50:37;39.40;;;20.33;;
4553;SDS011;2289;48.316;15.174;2024-03-08T08:53:06;35.33;;;22.47;;
4553;SDS011;2289;48.316;15.174;2024-03-08T08:55:37;39.67;;;21.63;;
4553;SDS011;2289;48.316;15.174;2024-03-08T08:58:08;35.63;;;22.30;;
4553;SDS011;2289;48.316;15.174;2024-03-08T09:00:38;43.33;;;23.57;;
4553;SDS011;2289;48.316;15.174;2024-03-08T09:03:07;36.27;;;22.10;;
4553;SDS011;2289;48.316;15.174;2024-03-08T09:05:36;34.43;;;20.07;;
4553;SDS011;2289;48.316;15.174;2024-03-08T09:08:06;30.63;;;19.20;;
4553;SDS011;2289;48.316;15.174;2024-03-08T09:10:37;33.77;;;19.60;;
4553;SDS011;2289;48.316;15.174;2024-03-08T09:13:07;34.67;;;21.67;;
4553;SDS011;2289;48.316;15.174;2024-03-08T09:15:47;34.90;;;20.13;;
4553;SDS011;2289;48.316;15.174;2024-03-08T09:18:18;29.07;;;18.70;;
4553;SDS011;2289;48.316;15.174;2024-03-08T09:20:47;41.90;;;21.40;;
4553;SDS011;2289;48.316;15.174;2024-03-08T09:23:19;34.77;;;19.67;;
4553;SDS011;2289;48.316;15.174;2024-03-08T09:25:49;32.13;;;20.93;;
4553;SDS011;2289;48.316;15.174;2024-03-08T09:28:21;29.33;;;18.40;;
4553;SDS011;2289;48.316;15.174;2024-03-08T09:30:52;32.70;;;19.70;;
4553;SDS011;2289;48.316;15.174;2024-03-08T09:33:26;27.27;;;18.83;;
4553;SDS011;2289;48.316;15.174;2024-03-08T09:35:55;29.93;;;19.93;;
4553;SDS011;2289;48.316;15.174;2024-03-08T09:38:27;29.10;;;18.07;;
4553;SDS011;2289;48.316;15.174;2024-03-08T09:40:58;27.40;;;18.40;;
4553;SDS011;2289;48.316;15.174;2024-03-08T09:43:28;32.10;;;17.60;;
4553;SDS011;2289;48.316;15.174;2024-03-08T09:45:57;28.43;;;18.47;;
4553;SDS011;2289;48.316;15.174;2024-03-08T09:48:26;30.80;;;20.80;;
4553;SDS011;2289;48.316;15.174;2024-03-08T09:50:56;31.10;;;19.73;;
4553;SDS011;2289;48.316;15.174;2024-03-08T09:53:25;28.80;;;19.30;;
4553;SDS011;2289;48.316;15.174;2024-03-08T09:55:53;34.90;;;20.10;;
4553;SDS011;2289;48.316;15.174;2024-03-08T09:58:24;28.10;;;18.40;;
4553;SDS011;2289;48.316;15.174;2024-03-08T10:01:21;28.63;;;18.93;;
4553;SDS011;2289;48.316;15.174;2024-03-08T10:03:50;25.30;;;17.90;;
4553;SDS011;2289;48.316;15.174;2024-03-08T10:06:22;27.90;;;18.10;;
4553;SDS011;2289;48.316;15.174;2024-03-08T10:08:51;23.20;;;17.67;;
4553;SDS011;2289;48.316;15.174;2024-03-08T10:11:20;27.23;;;18.13;;
4553;SDS011;2289;48.316;15.174;2024-03-08T10:13:51;26.33;;;18.40;;
4553;SDS011;2289;48.316;15.174;2024-03-08T10:16:20;28.00;;;17.80;;
4553;SDS011;2289;48.316;15.174;2024-03-08T10:18:51;31.23;;;20.57;;
4553;SDS011;2289;48.316;15.174;2024-03-08T10:21:20;27.17;;;17.83;;
4553;SDS011;2289;48.316;15.174;2024-03-08T10:23:50;32.00;;;20.30;;
4553;SDS011;2289;48.316;15.174;2024-03-08T10:26:19;25.93;;;16.20;;
4553;SDS011;2289;48.316;15.174;2024-03-08T10:28:49;27.87;;;17.30;;
4553;SDS011;2289;48.316;15.174;2024-03-08T10:31:20;31.23;;;19.67;;
4553;SDS011;2289;48.316;15.174;2024-03-08T10:33:49;31.90;;;21.57;;
4553;SDS011;2289;48.316;15.174;2024-03-08T10:36:20;29.27;;;18.83;;
4553;SDS011;2289;48.316;15.174;2024-03-08T10:38:51;30.13;;;18.87;;
4553;SDS011;2289;48.316;15.174;2024-03-08T10:41:20;33.90;;;20.50;;
4553;SDS011;2289;48.316;15.174;2024-03-08T10:43:59;30.50;;;19.17;;
4553;SDS011;2289;48.316;15.174;2024-03-08T10:46:41;28.40;;;18.83;;
4553;SDS011;2289;48.316;15.174;2024-03-08T10:49:23;36.30;;;20.40;;
4553;SDS011;2289;48.316;15.174;2024-03-08T10:51:54;27.37;;;19.37;;
4553;SDS011;2289;48.316;15.174;2024-03-08T10:54:25;33.93;;;19.57;;
4553;SDS011;2289;48.316;15.174;2024-03-08T10:56:55;35.77;;;20.70;;
4553;SDS011;2289;48.316;15.174;2024-03-08T10:59:27;27.60;;;20.00;;
4553;SDS011;2289;48.316;15.174;2024-03-08T11:01:57;27.30;;;17.87;;
4553;SDS011;2289;48.316;15.174;2024-03-08T11:04:26;28.97;;;18.87;;
4553;SDS011;2289;48.316;15.174;2024-03-08T11:07:00;38.00;;;18.80;;
4553;SDS011;2289;48.316;15.174;2024-03-08T11:09:35;33.20;;;19.67;;
4553;SDS011;2289;48.316;15.174;2024-03-08T11:12:18;35.53;;;19.03;;
4553;SDS011;2289;48.316;15.174;2024-03-08T11:14:55;36.97;;;21.23;;
4553;SDS011;2289;48.316;15.174;2024-03-08T11:17:27;29.60;;;19.80;;
4553;SDS011;2289;48.316;15.174;2024-03-08T11:20:09;27.07;;;18.30;;
4553;SDS011;2289;48.316;15.174;2024-03-08T11:22:43;32.03;;;20.13;;
4553;SDS011;2289;48.316;15.174;2024-03-08T11:25:32;33.33;;;18.63;;
4553;SDS011;2289;48.316;15.174;2024-03-08T11:28:07;32.93;;;20.03;;
4553;SDS011;2289;48.316;15.174;2024-03-08T11:30:43;30.40;;;19.90;;
4553;SDS011;2289;48.316;15.174;2024-03-08T11:33:14;28.00;;;18.07;;
4553;SDS011;2289;48.316;15.174;2024-03-08T11:35:43;32.77;;;19.50;;
4553;SDS011;2289;48.316;15.174;2024-03-08T11:38:12;27.03;;;17.73;;
4553;SDS011;2289;48.316;15.174;2024-03-08T11:40:44;27.87;;;17.60;;
4553;SDS011;2289;48.316;15.174;2024-03-08T11:43:16;33.80;;;18.57;;
4553;SDS011;2289;48.316;15.174;2024-03-08T11:45:48;32.23;;;18.83;;
4553;SDS011;2289;48.316;15.174;2024-03-08T11:48:17;28.70;;;19.97;;
4553;SDS011;2289;48.316;15.174;2024-03-08T11:50:46;28.87;;;17.83;;
4553;SDS011;2289;48.316;15.174;2024-03-08T11:53:16;25.03;;;16.67;;
4553;SDS011;2289;48.316;15.174;2024-03-08T11:55:45;25.27;;;17.50;;
4553;SDS011;2289;48.316;15.174;2024-03-08T11:58:15;26.30;;;16.67;;
4553;SDS011;2289;48.316;15.174;2024-03-08T12:00:45;25.47;;;17.33;;
4553;SDS011;2289;48.316;15.174;2024-03-08T12:03:23;27.10;;;18.10;;
4553;SDS011;2289;48.316;15.174;2024-03-08T12:05:59;29.63;;;17.77;;
4553;SDS011;2289;48.316;15.174;2024-03-08T12:08:28;29.40;;;19.10;;
4553;SDS011;2289;48.316;15.174;2024-03-08T12:10:59;30.60;;;18.47;;
4553;SDS011;2289;48.316;15.174;2024-03-08T12:13:28;31.77;;;17.83;;
4553;SDS011;2289;48.316;15.174;2024-03-08T12:16:01;30.67;;;17.50;;
4553;SDS011;2289;48.316;15.174;2024-03-08T12:18:41;29.67;;;18.83;;
4553;SDS011;2289;48.316;15.174;2024-03-08T12:21:10;26.13;;;16.40;;
4553;SDS011;2289;48.316;15.174;2024-03-08T12:23:42;29.00;;;17.73;;
4553;SDS011;2289;48.316;15.174;2024-03-08T12:26:23;31.77;;;18.47;;
4553;SDS011;2289;48.316;15.174;2024-03-08T12:29:00;30.33;;;17.60;;
4553;SDS011;2289;48.316;15.174;2024-03-08T12:31:45;28.60;;;17.57;;
4553;SDS011;2289;48.316;15.174;2024-03-08T12:34:15;27.13;;;16.90;;
4553;SDS011;2289;48.316;15.174;2024-03-08T12:36:48;27.03;;;15.90;;
4553;SDS011;2289;48.316;15.174;2024-03-08T12:39:19;29.27;;;18.77;;
4553;SDS011;2289;48.316;15.174;2024-03-08T12:41:54;25.00;;;17.20;;
4553;SDS011;2289;48.316;15.174;2024-03-08T12:44:26;31.30;;;17.63;;
4553;SDS011;2289;48.316;15.174;2024-03-08T12:46:57;26.47;;;17.07;;
4553;SDS011;2289;48.316;15.174;2024-03-08T12:49:27;26.13;;;15.70;;
4553;SDS011;2289;48.316;15.174;2024-03-08T12:51:58;22.67;;;13.97;;
4553;SDS011;2289;48.316;15.174;2024-03-08T12:54:27;23.70;;;15.67;;
4553;SDS011;2289;48.316;15.174;2024-03-08T12:56:58;24.53;;;16.00;;
4553;SDS011;2289;48.316;15.174;2024-03-08T12:59:27;25.10;;;13.63;;
4553;SDS011;2289;48.316;15.174;2024-03-08T13:01:58;22.97;;;14.57;;
4553;SDS011;2289;48.316;15.174;2024-03-08T13:04:27;18.57;;;14.20;;
4553;SDS011;2289;48.316;15.174;2024-03-08T13:06:58;26.03;;;14.93;;
4553;SDS011;2289;48.316;15.174;2024-03-08T13:09:29;17.40;;;12.23;;
4553;SDS011;2289;48.316;15.174;2024-03-08T13:11:59;20.20;;;14.37;;
4553;SDS011;2289;48.316;15.174;2024-03-08T13:14:27;24.90;;;14.63;;
4553;SDS011;2289;48.316;15.174;2024-03-08T13:17:00;20.10;;;12.50;;
4553;SDS011;2289;48.316;15.174;2024-03-08T13:19:29;22.47;;;14.50;;
4553;SDS011;2289;48.316;15.174;2024-03-08T13:21:58;20.27;;;14.20;;
4553;SDS011;2289;48.316;15.174;2024-03-08T13:24:28;22.27;;;14.27;;
4553;SDS011;2289;48.316;15.174;2024-03-08T13:26:57;22.57;;;14.07;;
4553;SDS011;2289;48.316;15.174;2024-03-08T13:29:26;23.50;;;15.80;;
4553;SDS011;2289;48.316;15.174;2024-03-08T13:31:55;20.80;;;12.90;;
4553;SDS011;2289;48.316;15.174;2024-03-08T13:34:30;22.53;;;15.60;;
4553;SDS011;2289;48.316;15.174;2024-03-08T13:37:02;24.47;;;16.70;;
4553;SDS011;2289;48.316;15.174;2024-03-08T13:39:32;23.07;;;14.20;;
4553;SDS011;2289;48.316;15.174;2024-03-08T13:42:07;22.13;;;15.33;;
4553;SDS011;2289;48.316;15.174;2024-03-08T13:44:43;25.70;;;15.10;;
4553;SDS011;2289;48.316;15.174;2024-03-08T13:47:13;21.77;;;14.00;;
4553;SDS011;2289;48.316;15.174;2024-03-08T13:49:43;27.27;;;15.43;;
4553;SDS011;2289;48.316;15.174;2024-03-08T13:52:12;22.00;;;12.63;;
4553;SDS011;2289;48.316;15.174;2024-03-08T13:54:41;22.00;;;14.10;;
4553;SDS011;2289;48.316;15.174;2024-03-08T13:57:10;19.27;;;12.30;;
4553;SDS011;2289;48.316;15.174;2024-03-08T13:59:40;23.20;;;14.13;;
4553;SDS011;2289;48.316;15.174;2024-03-08T14:02:10;23.47;;;15.90;;
4553;SDS011;2289;48.316;15.174;2024-03-08T14:04:41;24.63;;;14.00;;
4553;SDS011;2289;48.316;15.174;2024-03-08T14:07:11;26.50;;;15.73;;
4553;SDS011;2289;48.316;15.174;2024-03-08T14:09:42;20.17;;;12.53;;
4553;SDS011;2289;48.316;15.174;2024-03-08T14:12:11;21.70;;;13.23;;
4553;SDS011;2289;48.316;15.174;2024-03-08T14:14:41;18.87;;;12.90;;
4553;SDS011;2289;48.316;15.174;2024-03-08T14:17:11;20.20;;;12.03;;
4553;SDS011;2289;48.316;15.174;2024-03-08T14:19:44;24.07;;;12.73;;
4553;SDS011;2289;48.316;15.174;2024-03-08T14:22:14;17.90;;;13.30;;
4553;SDS011;2289;48.316;15.174;2024-03-08T14:24:43;19.10;;;13.00;;
4553;SDS011;2289;48.316;15.174;2024-03-08T14:27:11;22.60;;;14.20;;
4553;SDS011;2289;48.316;15.174;2024-03-08T14:42:46;18.70;;;12.23;;
4553;SDS011;2289;48.316;15.174;2024-03-08T14:45:17;18.10;;;12.47;;
4553;SDS011;2289;48.316;15.174;2024-03-08T16:09:35;15.80;;;11.00;;
4553;SDS011;2289;48.316;15.174;2024-03-08T16:12:04;15.60;;;10.70;;
4553;SDS011;2289;48.316;15.174;2024-03-08T16:17:40;26.23;;;13.90;;
4553;SDS011;2289;48.316;15.174;2024-03-08T16:20:10;21.70;;;13.93;;
4553;SDS011;2289;48.316;15.174;2024-03-08T16:22:42;12.63;;;10.63;;
4553;SDS011;2289;48.316;15.174;2024-03-08T16:28:21;19.43;;;13.77;;
4553;SDS011;2289;48.316;15.174;2024-03-08T16:30:53;21.47;;;11.13;;
4553;SDS011;2289;48.316;15.174;2024-03-08T16:58:51;21.83;;;12.93;;
4553;SDS011;2289;48.316;15.174;2024-03-08T17:01:21;17.20;;;11.57;;
4553;SDS011;2289;48.316;15.174;2024-03-08T17:03:50;16.63;;;12.10;;
4553;SDS011;2289;48.316;15.174;2024-03-08T17:06:26;29.37;;;13.13;;
4553;SDS011;2289;48.316;15.174;2024-03-08T17:08:57;21.57;;;13.50;;
4553;SDS011;2289;48.316;15.174;2024-03-08T17:11:29;23.37;;;12.87;;
4553;SDS011;2289;48.316;15.174;2024-03-08T17:14:02;17.93;;;12.43;;
4553;SDS011;2289;48.316;15.174;2024-03-08T17:16:32;17.83;;;13.03;;
4553;SDS011;2289;48.316;15.174;2024-03-08T17:19:03;20.33;;;12.13;;
4553;SDS011;2289;48.316;15.174;2024-03-08T17:21:33;18.90;;;12.93;;
4553;SDS011;2289;48.316;15.174;2024-03-08T17:24:03;24.40;;;13.43;;
4553;SDS011;2289;48.316;15.174;2024-03-08T17:26:39;20.90;;;12.60;;
4553;SDS011;2289;48.316;15.174;2024-03-08T17:29:11;23.30;;;13.00;;
4553;SDS011;2289;48.316;15.174;2024-03-08T17:31:48;20.10;;;13.43;;
4553;SDS011;2289;48.316;15.174;2024-03-08T17:34:17;19.90;;;12.83;;
4553;SDS011;2289;48.316;15.174;2024-03-08T17:36:46;24.23;;;14.30;;
4553;SDS011;2289;48.316;15.174;2024-03-08T17:39:16;19.97;;;13.70;;
4553;SDS011;2289;48.316;15.174;2024-03-08T17:41:46;18.60;;;12.90;;
4553;SDS011;2289;48.316;15.174;2024-03-08T17:44:18;19.93;;;12.37;;
4553;SDS011;2289;48.316;15.174;2024-03-08T17:46:48;17.07;;;12.47;;
4553;SDS011;2289;48.316;15.174;2024-03-08T17:49:20;17.23;;;11.57;;
4553;SDS011;2289;48.316;15.174;2024-03-08T17:51:50;19.03;;;11.23;;
4553;SDS011;2289;48.316;15.174;2024-03-08T17:54:20;19.90;;;13.50;;
4553;SDS011;2289;48.316;15.174;2024-03-08T17:56:50;22.03;;;12.53;;